sensor_id;sensor_type;location;lat;lon;timestamp;pressure;altitude;pressure_sealevel;temperature;humidity
5877;BME280;2964;42.144;24.730;2023-02-20T00:02:17;145154.19;;;14.41;48.38
5877;BME280;2964;42.144;24.730;2023-02-20T00:04:46;145141.56;;;14.36;48.17
5877;BME280;2964;42.144;24.730;2023-02-20T00:07:12;145160.44;;;14.43;48.13
5877;BME280;2964;42.144;24.730;2023-02-20T00:09:39;145107.53;;;14.22;48.35
5877;BME280;2964;42.144;24.730;2023-02-20T00:12:06;145150.38;;;14.39;48.04
5877;BME280;2964;42.144;24.730;2023-02-20T00:14:34;145134.00;;;14.33;48.16
5877;BME280;2964;42.144;24.730;2023-02-20T00:17:01;145112.59;;;14.24;48.41
5877;BME280;2964;42.144;24.730;2023-02-20T00:19:28;145071.00;;;14.07;48.85
5877;BME280;2964;42.144;24.730;2023-02-20T00:21:54;145063.47;;;14.04;49.23
5877;BME280;2964;42.144;24.730;2023-02-20T00:24:21;145064.72;;;14.04;49.20
5877;BME280;2964;42.144;24.730;2023-02-20T00:26:49;145078.56;;;14.10;49.36
5877;BME280;2964;42.144;24.730;2023-02-20T00:29:18;145052.13;;;13.99;49.59
5877;BME280;2964;42.144;24.730;2023-02-20T00:31:51;145029.44;;;13.90;50.04
5877;BME280;2964;42.144;24.730;2023-02-20T00:34:18;145026.97;;;13.89;50.37
5877;BME280;2964;42.144;24.730;2023-02-20T00:36:44;145014.34;;;13.84;50.26
5877;BME280;2964;42.144;24.730;2023-02-20T00:39:11;145037.03;;;13.93;49.72
5877;BME280;2964;42.144;24.730;2023-02-20T00:41:38;144962.69;;;13.63;50.79
5877;BME280;2964;42.144;24.730;2023-02-20T00:44:05;144979.09;;;13.69;50.81
5877;BME280;2964;42.144;24.730;2023-02-20T00:46:32;144986.66;;;13.73;50.72
5877;BME280;2964;42.144;24.730;2023-02-20T00:49:00;144976.59;;;13.68;50.86
5877;BME280;2964;42.144;24.730;2023-02-20T00:51:27;145009.31;;;13.82;50.90
5877;BME280;2964;42.144;24.730;2023-02-20T00:53:54;144937.53;;;13.52;51.39
5877;BME280;2964;42.144;24.730;2023-02-20T00:56:21;144923.69;;;13.47;51.25
5877;BME280;2964;42.144;24.730;2023-02-20T00:58:47;144932.50;;;13.50;51.20
5877;BME280;2964;42.144;24.730;2023-02-20T01:01:14;144947.59;;;13.57;50.66
5877;BME280;2964;42.144;24.730;2023-02-20T01:03:41;144974.06;;;13.67;50.56
5877;BME280;2964;42.144;24.730;2023-02-20T01:06:10;144879.56;;;13.29;51.04
5877;BME280;2964;42.144;24.730;2023-02-20T01:08:36;144926.19;;;13.48;50.84
5877;BME280;2964;42.144;24.730;2023-02-20T01:11:03;144916.13;;;13.44;50.88
5877;BME280;2964;42.144;24.730;2023-02-20T01:13:30;144918.66;;;13.45;51.05
5877;BME280;2964;42.144;24.730;2023-02-20T01:15:57;144909.84;;;13.41;51.07
5877;BME280;2964;42.144;24.730;2023-02-20T01:18:24;144872.00;;;13.26;51.49
5877;BME280;2964;42.144;24.730;2023-02-20T01:20:50;144875.78;;;13.27;51.42
5877;BME280;2964;42.144;24.730;2023-02-20T01:23:18;144892.22;;;13.34;51.17
5877;BME280;2964;42.144;24.730;2023-02-20T01:25:45;144896.00;;;13.36;50.92
5877;BME280;2964;42.144;24.730;2023-02-20T01:28:12;144912.34;;;13.42;51.06
5877;BME280;2964;42.144;24.730;2023-02-20T01:30:38;144909.84;;;13.41;50.77
5877;BME280;2964;42.144;24.730;2023-02-20T01:33:05;144926.19;;;13.48;50.93
5877;BME280;2964;42.144;24.730;2023-02-20T01:35:32;144890.97;;;13.34;51.13
5877;BME280;2964;42.144;24.730;2023-02-20T01:37:59;144865.72;;;13.23;51.37
5877;BME280;2964;42.144;24.730;2023-02-20T01:40:32;144890.97;;;13.34;51.05
5877;BME280;2964;42.144;24.730;2023-02-20T01:42:59;144919.91;;;13.45;51.17
5877;BME280;2964;42.144;24.730;2023-02-20T01:45:31;144787.72;;;12.91;50.93
5877;BME280;2964;42.144;24.730;2023-02-20T01:47:58;144850.66;;;13.17;51.68
5877;BME280;2964;42.144;24.730;2023-02-20T01:50:29;144770.09;;;12.84;52.60
5877;BME280;2964;42.144;24.730;2023-02-20T01:53:00;144834.28;;;13.10;52.22
5877;BME280;2964;42.144;24.730;2023-02-20T01:55:31;144858.16;;;13.20;51.95
5877;BME280;2964;42.144;24.730;2023-02-20T01:58:05;144785.19;;;12.90;52.70
5877;BME280;2964;42.144;24.730;2023-02-20T02:00:35;144829.22;;;13.08;52.47
5877;BME280;2964;42.144;24.730;2023-02-20T02:03:06;144760.03;;;12.80;53.10
5877;BME280;2964;42.144;24.730;2023-02-20T02:05:34;144732.38;;;12.69;53.66
5877;BME280;2964;42.144;24.730;2023-02-20T02:08:03;144694.59;;;12.53;54.34
5877;BME280;2964;42.144;24.730;2023-02-20T02:10:35;144746.19;;;12.74;53.43
5877;BME280;2964;42.144;24.730;2023-02-20T02:13:05;144693.34;;;12.53;54.40
5877;BME280;2964;42.144;24.730;2023-02-20T02:15:32;144680.75;;;12.48;54.36
5877;BME280;2964;42.144;24.730;2023-02-20T02:21:21;144582.63;;;12.08;55.67
5877;BME280;2964;42.144;24.730;2023-02-20T02:24:47;144616.63;;;12.22;56.11
5877;BME280;2964;42.144;24.730;2023-02-20T02:30:47;144578.91;;;12.06;56.62
5877;BME280;2964;42.144;24.730;2023-02-20T02:33:38;144560.00;;;11.98;57.04
5877;BME280;2964;42.144;24.730;2023-02-20T02:36:32;144581.38;;;12.07;56.99
5877;BME280;2964;42.144;24.730;2023-02-20T02:39:06;144568.81;;;12.02;57.11
5877;BME280;2964;42.144;24.730;2023-02-20T02:41:43;144596.47;;;12.13;56.68
5877;BME280;2964;42.144;24.730;2023-02-20T02:44:16;144595.22;;;12.13;57.05
5877;BME280;2964;42.144;24.730;2023-02-20T02:46:49;144614.06;;;12.21;56.83
5877;BME280;2964;42.144;24.730;2023-02-20T02:49:24;144601.53;;;12.15;57.26
5877;BME280;2964;42.144;24.730;2023-02-20T02:51:53;144576.38;;;12.05;57.62
5877;BME280;2964;42.144;24.730;2023-02-20T02:54:23;144614.06;;;12.21;57.04
5877;BME280;2964;42.144;24.730;2023-02-20T02:56:52;144639.25;;;12.31;56.79
5877;BME280;2964;42.144;24.730;2023-02-20T02:59:22;144622.88;;;12.24;57.10
5877;BME280;2964;42.144;24.730;2023-02-20T03:01:54;144644.28;;;12.33;57.04
5877;BME280;2964;42.144;24.730;2023-02-20T03:04:25;144595.22;;;12.13;57.68
5877;BME280;2964;42.144;24.730;2023-02-20T03:06:58;144541.13;;;11.91;58.86
5877;BME280;2964;42.144;24.730;2023-02-20T03:09:28;144509.66;;;11.78;59.03
5877;BME280;2964;42.144;24.730;2023-02-20T03:11:58;144518.47;;;11.82;59.25
5877;BME280;2964;42.144;24.730;2023-02-20T03:14:27;144487.03;;;11.69;59.13
5877;BME280;2964;42.144;24.730;2023-02-20T03:17:19;144533.59;;;11.88;59.73
5877;BME280;2964;42.144;24.730;2023-02-20T03:19:53;144543.69;;;11.92;59.69
5877;BME280;2964;42.144;24.730;2023-02-20T03:22:24;144536.06;;;11.89;60.55
5877;BME280;2964;42.144;24.730;2023-02-20T03:24:55;144441.78;;;11.50;61.27
5877;BME280;2964;42.144;24.730;2023-02-20T03:27:28;144533.59;;;11.88;60.51
5877;BME280;2964;42.144;24.730;2023-02-20T03:30:06;144539.91;;;11.90;60.53
5877;BME280;2964;42.144;24.730;2023-02-20T03:32:36;144556.25;;;11.97;60.44
5877;BME280;2964;42.144;24.730;2023-02-20T03:35:23;144561.28;;;11.99;60.61
5877;BME280;2964;42.144;24.730;2023-02-20T03:38:11;144582.63;;;12.08;60.07
5877;BME280;2964;42.144;24.730;2023-02-20T03:40:57;144513.44;;;11.79;61.21
5877;BME280;2964;42.144;24.730;2023-02-20T03:43:44;144570.09;;;12.03;60.57
5877;BME280;2964;42.144;24.730;2023-02-20T03:46:16;144590.19;;;12.11;59.68
5877;BME280;2964;42.144;24.730;2023-02-20T03:48:49;144601.53;;;12.15;59.59
5877;BME280;2964;42.144;24.730;2023-02-20T03:51:19;144610.34;;;12.19;59.71
5877;BME280;2964;42.144;24.730;2023-02-20T03:53:47;144552.47;;;11.95;60.67
5877;BME280;2964;42.144;24.730;2023-02-20T03:56:17;144576.38;;;12.05;60.27
5877;BME280;2964;42.144;24.730;2023-02-20T03:58:53;144591.44;;;12.11;59.99
5877;BME280;2964;42.144;24.730;2023-02-20T04:01:22;144630.44;;;12.27;59.40
5877;BME280;2964;42.144;24.730;2023-02-20T04:03:53;144593.97;;;12.12;60.06
5877;BME280;2964;42.144;24.730;2023-02-20T04:06:25;144606.56;;;12.18;59.90
5877;BME280;2964;42.144;24.730;2023-02-20T04:08:58;144631.69;;;12.28;59.48
5877;BME280;2964;42.144;24.730;2023-02-20T04:11:30;144646.81;;;12.34;59.38
5877;BME280;2964;42.144;24.730;2023-02-20T04:13:59;144631.69;;;12.28;60.01
5877;BME280;2964;42.144;24.730;2023-02-20T04:16:27;144626.66;;;12.26;60.04
5877;BME280;2964;42.144;24.730;2023-02-20T04:18:55;144622.88;;;12.24;59.77
5877;BME280;2964;42.144;24.730;2023-02-20T04:21:26;144563.78;;;12.00;60.49
5877;BME280;2964;42.144;24.730;2023-02-20T04:24:02;144577.59;;;12.06;60.54
5877;BME280;2964;42.144;24.730;2023-02-20T04:26:31;144605.28;;;12.17;59.54
5877;BME280;2964;42.144;24.730;2023-02-20T04:28:58;144539.91;;;11.90;60.50
5877;BME280;2964;42.144;24.730;2023-02-20T04:31:26;144593.97;;;12.12;59.51
5877;BME280;2964;42.144;24.730;2023-02-20T04:33:52;144576.38;;;12.05;59.29
5877;BME280;2964;42.144;24.730;2023-02-20T04:36:20;144510.94;;;11.78;59.42
5877;BME280;2964;42.144;24.730;2023-02-20T04:38:46;144498.38;;;11.73;60.83
5877;BME280;2964;42.144;24.730;2023-02-20T04:41:15;144504.63;;;11.76;60.58
5877;BME280;2964;42.144;24.730;2023-02-20T04:43:41;144449.34;;;11.53;61.69
5877;BME280;2964;42.144;24.730;2023-02-20T04:46:08;144458.13;;;11.57;60.91
5877;BME280;2964;42.144;24.730;2023-02-20T04:48:35;144522.25;;;11.83;60.21
5877;BME280;2964;42.144;24.730;2023-02-20T04:51:02;144513.44;;;11.79;59.40
5877;BME280;2964;42.144;24.730;2023-02-20T04:53:28;144494.59;;;11.72;59.59
5877;BME280;2964;42.144;24.730;2023-02-20T04:55:57;144493.34;;;11.71;58.39
5877;BME280;2964;42.144;24.730;2023-02-20T04:58:25;144548.69;;;11.94;57.71
5877;BME280;2964;42.144;24.730;2023-02-20T05:00:52;144450.56;;;11.54;58.66
5877;BME280;2964;42.144;24.730;2023-02-20T05:03:19;144427.94;;;11.45;58.53
5877;BME280;2964;42.144;24.730;2023-02-20T05:05:46;144443.00;;;11.51;57.67
5877;BME280;2964;42.144;24.730;2023-02-20T05:08:13;144453.09;;;11.55;57.31
5877;BME280;2964;42.144;24.730;2023-02-20T05:10:40;144432.97;;;11.47;57.70
5877;BME280;2964;42.144;24.730;2023-02-20T05:13:06;144415.38;;;11.39;57.71
5877;BME280;2964;42.144;24.730;2023-02-20T05:15:34;144427.94;;;11.45;57.44
5877;BME280;2964;42.144;24.730;2023-02-20T05:18:01;144505.88;;;11.76;56.30
5877;BME280;2964;42.144;24.730;2023-02-20T05:20:28;144534.81;;;11.88;55.97
5877;BME280;2964;42.144;24.730;2023-02-20T05:23:13;144484.53;;;11.68;56.04
5877;BME280;2964;42.144;24.730;2023-02-20T05:25:40;144499.59;;;11.74;56.19
5877;BME280;2964;42.144;24.730;2023-02-20T05:28:06;144487.03;;;11.69;56.56
5877;BME280;2964;42.144;24.730;2023-02-20T05:30:35;144476.97;;;11.65;56.51
5877;BME280;2964;42.144;24.730;2023-02-20T05:33:01;144414.13;;;11.39;57.33
5877;BME280;2964;42.144;24.730;2023-02-20T05:35:28;144444.31;;;11.51;56.53
5877;BME280;2964;42.144;24.730;2023-02-20T05:37:55;144473.19;;;11.63;56.62
5877;BME280;2964;42.144;24.730;2023-02-20T05:40:21;144470.72;;;11.62;55.88
5877;BME280;2964;42.144;24.730;2023-02-20T05:42:48;144507.16;;;11.77;55.51
5877;BME280;2964;42.144;24.730;2023-02-20T05:45:15;144495.84;;;11.72;55.67
5877;BME280;2964;42.144;24.730;2023-02-20T05:47:45;144515.97;;;11.81;55.26
5877;BME280;2964;42.144;24.730;2023-02-20T05:50:12;144505.88;;;11.76;55.17
5877;BME280;2964;42.144;24.730;2023-02-20T05:52:39;144459.38;;;11.57;55.94
5877;BME280;2964;42.144;24.730;2023-02-20T05:55:07;144458.13;;;11.57;55.76
5877;BME280;2964;42.144;24.730;2023-02-20T05:57:34;144485.78;;;11.68;55.46
5877;BME280;2964;42.144;24.730;2023-02-20T06:00:00;144495.84;;;11.72;55.42
5877;BME280;2964;42.144;24.730;2023-02-20T06:02:30;144505.88;;;11.76;55.25
5877;BME280;2964;42.144;24.730;2023-02-20T06:04:59;144476.97;;;11.65;55.66
5877;BME280;2964;42.144;24.730;2023-02-20T06:07:26;144526.03;;;11.85;55.27
5877;BME280;2964;42.144;24.730;2023-02-20T06:09:53;144543.69;;;11.92;55.12
5877;BME280;2964;42.144;24.730;2023-02-20T06:12:19;144554.97;;;11.96;54.66
5877;BME280;2964;42.144;24.730;2023-02-20T06:14:46;144544.91;;;11.92;54.21
5877;BME280;2964;42.144;24.730;2023-02-20T06:17:12;144556.25;;;11.97;54.57
5877;BME280;2964;42.144;24.730;2023-02-20T06:19:39;144539.91;;;11.90;54.68
5877;BME280;2964;42.144;24.730;2023-02-20T06:22:07;144583.91;;;12.08;54.13
5877;BME280;2964;42.144;24.730;2023-02-20T06:24:34;144588.94;;;12.10;53.63
5877;BME280;2964;42.144;24.730;2023-02-20T06:27:01;144630.44;;;12.27;53.17
5877;BME280;2964;42.144;24.730;2023-02-20T06:29:27;144617.84;;;12.22;53.10
5877;BME280;2964;42.144;24.730;2023-02-20T06:31:57;144654.31;;;12.37;52.58
5877;BME280;2964;42.144;24.730;2023-02-20T06:34:23;144676.97;;;12.46;52.10
5877;BME280;2964;42.144;24.730;2023-02-20T06:36:50;144738.63;;;12.71;51.51
5877;BME280;2964;42.144;24.730;2023-02-20T06:39:18;144692.09;;;12.52;51.08
5877;BME280;2964;42.144;24.730;2023-02-20T06:41:45;144794.00;;;12.94;49.17
5877;BME280;2964;42.144;24.730;2023-02-20T06:44:11;144890.97;;;13.34;47.95
5877;BME280;2964;42.144;24.730;2023-02-20T06:46:38;144994.19;;;13.76;47.00
5877;BME280;2964;42.144;24.730;2023-02-20T06:49:05;145084.84;;;14.13;46.17
5877;BME280;2964;42.144;24.730;2023-02-20T06:51:33;145102.50;;;14.20;45.97
5877;BME280;2964;42.144;24.730;2023-02-20T06:54:02;145181.88;;;14.52;44.71
5877;BME280;2964;42.144;24.730;2023-02-20T06:56:32;145112.59;;;14.24;45.91
5877;BME280;2964;42.144;24.730;2023-02-20T06:59:00;145215.94;;;14.66;44.94
5877;BME280;2964;42.144;24.730;2023-02-20T07:01:29;145150.38;;;14.39;45.31
5877;BME280;2964;42.144;24.730;2023-02-20T07:04:02;145223.50;;;14.69;44.99
5877;BME280;2964;42.144;24.730;2023-02-20T07:06:29;145234.88;;;14.74;45.02
5877;BME280;2964;42.144;24.730;2023-02-20T07:08:56;145376.03;;;15.31;43.54
5877;BME280;2964;42.144;24.730;2023-02-20T07:11:23;145432.75;;;15.54;42.75
5877;BME280;2964;42.144;24.730;2023-02-20T07:13:51;145724.25;;;16.73;40.84
5877;BME280;2964;42.144;24.730;2023-02-20T07:16:18;145807.56;;;17.07;39.11
5877;BME280;2964;42.144;24.730;2023-02-20T07:18:44;145690.13;;;16.59;39.70
5877;BME280;2964;42.144;24.730;2023-02-20T07:21:11;145586.66;;;16.17;40.17
5877;BME280;2964;42.144;24.730;2023-02-20T07:23:38;145451.66;;;15.62;41.32
5877;BME280;2964;42.144;24.730;2023-02-20T07:26:04;145532.44;;;15.95;40.71
5877;BME280;2964;42.144;24.730;2023-02-20T07:28:33;145738.13;;;16.78;38.49
5877;BME280;2964;42.144;24.730;2023-02-20T07:31:02;145743.16;;;16.81;38.00
5877;BME280;2964;42.144;24.730;2023-02-20T07:33:28;145778.56;;;16.95;37.64
5877;BME280;2964;42.144;24.730;2023-02-20T07:35:55;145845.44;;;17.22;37.41
5877;BME280;2964;42.144;24.730;2023-02-20T07:38:22;145725.47;;;16.73;37.95
5877;BME280;2964;42.144;24.730;2023-02-20T07:40:48;145678.81;;;16.54;37.55
5877;BME280;2964;42.144;24.730;2023-02-20T07:43:15;145628.28;;;16.34;38.07
5877;BME280;2964;42.144;24.730;2023-02-20T07:45:42;145758.34;;;16.87;36.85
5877;BME280;2964;42.144;24.730;2023-02-20T07:48:10;145717.91;;;16.70;36.85
5877;BME280;2964;42.144;24.730;2023-02-20T07:50:36;145702.75;;;16.64;36.94
5877;BME280;2964;42.144;24.730;2023-02-20T07:53:03;145725.47;;;16.73;36.78
5877;BME280;2964;42.144;24.730;2023-02-20T07:55:30;145831.53;;;17.16;35.78
5877;BME280;2964;42.144;24.730;2023-02-20T07:57:57;145822.72;;;17.13;35.48
5877;BME280;2964;42.144;24.730;2023-02-20T08:00:25;145743.16;;;16.81;34.81
5877;BME280;2964;42.144;24.730;2023-02-20T08:02:52;145998.25;;;17.84;34.00
5877;BME280;2964;42.144;24.730;2023-02-20T08:05:20;146225.72;;;18.77;32.78
5877;BME280;2964;42.144;24.730;2023-02-20T08:07:48;145957.81;;;17.68;34.18
5877;BME280;2964;42.144;24.730;2023-02-20T08:10:17;145936.34;;;17.59;34.21
5877;BME280;2964;42.144;24.730;2023-02-20T08:12:45;145902.28;;;17.45;33.98
5877;BME280;2964;42.144;24.730;2023-02-20T08:15:11;145768.44;;;16.91;34.33
5877;BME280;2964;42.144;24.730;2023-02-20T08:17:38;145877.00;;;17.35;34.09
5877;BME280;2964;42.144;24.730;2023-02-20T08:20:07;145901.03;;;17.45;34.10
5877;BME280;2964;42.144;24.730;2023-02-20T08:22:35;145937.63;;;17.60;33.21
5877;BME280;2964;42.144;24.730;2023-02-20T08:25:02;145899.72;;;17.44;33.72
5877;BME280;2964;42.144;24.730;2023-02-20T08:27:29;145942.69;;;17.62;31.88
5877;BME280;2964;42.144;24.730;2023-02-20T08:29:56;146194.13;;;18.64;30.76
5877;BME280;2964;42.144;24.730;2023-02-20T08:32:23;146053.88;;;18.07;30.96
5877;BME280;2964;42.144;24.730;2023-02-20T08:34:50;145889.63;;;17.40;31.94
5877;BME280;2964;42.144;24.730;2023-02-20T08:37:17;145834.09;;;17.17;32.90
5877;BME280;2964;42.144;24.730;2023-02-20T08:39:45;145995.69;;;17.83;31.80
5877;BME280;2964;42.144;24.730;2023-02-20T08:42:14;146055.09;;;18.07;30.82
5877;BME280;2964;42.144;24.730;2023-02-20T08:44:41;146120.84;;;18.34;30.69
5877;BME280;2964;42.144;24.730;2023-02-20T08:47:08;146031.13;;;17.98;30.72
5877;BME280;2964;42.144;24.730;2023-02-20T08:49:34;145860.63;;;17.28;31.20
5877;BME280;2964;42.144;24.730;2023-02-20T08:52:01;145883.34;;;17.38;31.23
5877;BME280;2964;42.144;24.730;2023-02-20T08:54:30;145861.88;;;17.29;31.43
5877;BME280;2964;42.144;24.730;2023-02-20T08:56:58;145868.16;;;17.31;30.98
5877;BME280;2964;42.144;24.730;2023-02-20T08:59:25;145988.16;;;17.80;30.38
5877;BME280;2964;42.144;24.730;2023-02-20T09:01:51;146187.81;;;18.61;29.10
5877;BME280;2964;42.144;24.730;2023-02-20T09:04:18;146386.31;;;19.42;27.52
5877;BME280;2964;42.144;24.730;2023-02-20T09:06:46;146597.63;;;20.28;26.37
5877;BME280;2964;42.144;24.730;2023-02-20T09:09:13;146890.13;;;21.46;24.45
5877;BME280;2964;42.144;24.730;2023-02-20T09:11:39;147078.88;;;22.23;23.25
5877;BME280;2964;42.144;24.730;2023-02-20T09:14:08;147029.47;;;22.03;22.78
5877;BME280;2964;42.144;24.730;2023-02-20T09:16:35;147350.19;;;23.32;21.63
5877;BME280;2964;42.144;24.730;2023-02-20T09:19:01;147180.28;;;22.64;22.07
5877;BME280;2964;42.144;24.730;2023-02-20T09:21:28;147075.06;;;22.21;21.73
5877;BME280;2964;42.144;24.730;2023-02-20T09:23:55;147266.50;;;22.99;21.74
5877;BME280;2964;42.144;24.730;2023-02-20T09:26:21;147335.00;;;23.26;21.30
5877;BME280;2964;42.144;24.730;2023-02-20T09:28:48;147199.28;;;22.71;21.05
5877;BME280;2964;42.144;24.730;2023-02-20T09:31:16;147177.75;;;22.63;21.66
5877;BME280;2964;42.144;24.730;2023-02-20T09:33:43;147269.00;;;23.00;21.09
5877;BME280;2964;42.144;24.730;2023-02-20T09:36:10;147414.84;;;23.59;20.63
5877;BME280;2964;42.144;24.730;2023-02-20T09:38:37;147077.59;;;22.22;21.71
5877;BME280;2964;42.144;24.730;2023-02-20T09:41:04;147284.28;;;23.06;20.40
5877;BME280;2964;42.144;24.730;2023-02-20T09:43:43;147284.28;;;23.06;19.48
5877;BME280;2964;42.144;24.730;2023-02-20T09:46:13;147550.63;;;24.14;18.86
5877;BME280;2964;42.144;24.730;2023-02-20T09:48:53;147303.31;;;23.13;18.79
5877;BME280;2964;42.144;24.730;2023-02-20T09:51:26;147288.09;;;23.07;18.94
5877;BME280;2964;42.144;24.730;2023-02-20T09:53:57;147255.06;;;22.94;18.76
5877;BME280;2964;42.144;24.730;2023-02-20T09:56:29;147340.06;;;23.28;18.50
5877;BME280;2964;42.144;24.730;2023-02-20T09:59:00;147397.09;;;23.51;17.20
5877;BME280;2964;42.144;24.730;2023-02-20T10:01:28;147314.69;;;23.18;16.62
5877;BME280;2964;42.144;24.730;2023-02-20T10:04:00;147317.25;;;23.19;17.63
5877;BME280;2964;42.144;24.730;2023-02-20T10:06:29;147272.81;;;23.01;17.36
5877;BME280;2964;42.144;24.730;2023-02-20T10:08:56;147228.44;;;22.83;17.57
5877;BME280;2964;42.144;24.730;2023-02-20T10:11:37;147294.41;;;23.10;17.67
5877;BME280;2964;42.144;24.730;2023-02-20T10:14:33;147407.28;;;23.56;17.49
5877;BME280;2964;42.144;24.730;2023-02-20T10:17:11;146914.16;;;21.56;17.75
5877;BME280;2964;42.144;24.730;2023-02-20T10:19:49;146385.06;;;19.41;19.84
5877;BME280;2964;42.144;24.730;2023-02-20T10:22:19;146122.09;;;18.35;21.01
5877;BME280;2964;42.144;24.730;2023-02-20T10:25:02;146149.88;;;18.46;21.28
5877;BME280;2964;42.144;24.730;2023-02-20T10:27:42;146137.28;;;18.41;20.95
5877;BME280;2964;42.144;24.730;2023-02-20T10:32:49;145943.94;;;17.62;22.20
5877;BME280;2964;42.144;24.730;2023-02-20T10:35:22;145919.97;;;17.52;21.75
5877;BME280;2964;42.144;24.730;2023-02-20T10:37:53;145903.53;;;17.46;21.85
5877;BME280;2964;42.144;24.730;2023-02-20T10:40:23;145827.75;;;17.15;22.18
5877;BME280;2964;42.144;24.730;2023-02-20T10:42:56;145841.63;;;17.21;22.51
5877;BME280;2964;42.144;24.730;2023-02-20T10:45:31;145818.91;;;17.11;22.22
5877;BME280;2964;42.144;24.730;2023-02-20T10:48:06;145793.69;;;17.01;22.35
5877;BME280;2964;42.144;24.730;2023-02-20T10:50:38;145808.81;;;17.07;22.52
5877;BME280;2964;42.144;24.730;2023-02-20T10:53:16;145789.91;;;17.00;22.25
5877;BME280;2964;42.144;24.730;2023-02-20T10:55:50;145788.66;;;16.99;22.68
5877;BME280;2964;42.144;24.730;2023-02-20T10:58:21;145788.66;;;16.99;22.68
5877;BME280;2964;42.144;24.730;2023-02-20T11:00:53;145787.34;;;16.98;22.64
5877;BME280;2964;42.144;24.730;2023-02-20T11:03:24;145787.34;;;16.98;22.26
5877;BME280;2964;42.144;24.730;2023-02-20T11:05:56;145743.16;;;16.81;22.67
5877;BME280;2964;42.144;24.730;2023-02-20T11:08:26;145730.53;;;16.75;22.52
5877;BME280;2964;42.144;24.730;2023-02-20T11:10:56;145739.38;;;16.79;22.86
5877;BME280;2964;42.144;24.730;2023-02-20T11:13:25;145750.75;;;16.84;22.71
5877;BME280;2964;42.144;24.730;2023-02-20T11:15:53;145767.19;;;16.90;22.98
5877;BME280;2964;42.144;24.730;2023-02-20T11:18:23;145740.59;;;16.79;22.73
5877;BME280;2964;42.144;24.730;2023-02-20T11:20:54;145734.31;;;16.77;23.03
5877;BME280;2964;42.144;24.730;2023-02-20T11:23:37;145773.47;;;16.93;22.40
5877;BME280;2964;42.144;24.730;2023-02-20T11:26:26;145757.09;;;16.86;21.83
5877;BME280;2964;42.144;24.730;2023-02-20T11:29:10;145740.59;;;16.79;21.86
5877;BME280;2964;42.144;24.730;2023-02-20T11:31:40;145815.16;;;17.10;22.51
5877;BME280;2964;42.144;24.730;2023-02-20T11:34:14;145824.00;;;17.13;21.77
5877;BME280;2964;42.144;24.730;2023-02-20T11:36:45;145822.72;;;17.13;21.94
5877;BME280;2964;42.144;24.730;2023-02-20T11:39:21;145816.41;;;17.10;21.71
5877;BME280;2964;42.144;24.730;2023-02-20T11:42:02;145826.50;;;17.14;22.25
5877;BME280;2964;42.144;24.730;2023-02-20T11:44:30;145817.66;;;17.11;22.46
5877;BME280;2964;42.144;24.730;2023-02-20T11:47:17;145812.63;;;17.09;22.18
5877;BME280;2964;42.144;24.730;2023-02-20T11:49:45;145779.81;;;16.95;22.35
5877;BME280;2964;42.144;24.730;2023-02-20T11:52:18;145789.91;;;17.00;22.82
5877;BME280;2964;42.144;24.730;2023-02-20T11:54:45;145781.06;;;16.96;22.84
5877;BME280;2964;42.144;24.730;2023-02-20T11:57:24;145776.00;;;16.94;23.25
5877;BME280;2964;42.144;24.730;2023-02-20T12:00:09;145811.38;;;17.08;23.27
5877;BME280;2964;42.144;24.730;2023-02-20T12:02:47;145808.81;;;17.07;22.62
5877;BME280;2964;42.144;24.730;2023-02-20T12:05:14;145802.53;;;17.05;22.57
5877;BME280;2964;42.144;24.730;2023-02-20T12:07:45;145807.56;;;17.07;22.30
5877;BME280;2964;42.144;24.730;2023-02-20T12:10:27;145770.97;;;16.92;23.13
5877;BME280;2964;42.144;24.730;2023-02-20T12:12:57;145806.31;;;17.06;22.73
5877;BME280;2964;42.144;24.730;2023-02-20T12:15:26;145758.34;;;16.87;22.85
5877;BME280;2964;42.144;24.730;2023-02-20T12:18:07;145805.03;;;17.06;22.69
5877;BME280;2964;42.144;24.730;2023-02-20T12:20:40;145806.31;;;17.06;22.85
5877;BME280;2964;42.144;24.730;2023-02-20T12:23:17;145844.19;;;17.22;23.20
5877;BME280;2964;42.144;24.730;2023-02-20T12:25:54;145851.78;;;17.25;22.73
5877;BME280;2964;42.144;24.730;2023-02-20T12:28:28;145806.31;;;17.06;23.15
5877;BME280;2964;42.144;24.730;2023-02-20T12:31:05;145817.66;;;17.11;23.15
5877;BME280;2964;42.144;24.730;2023-02-20T12:34:07;145816.41;;;17.10;23.43
5877;BME280;2964;42.144;24.730;2023-02-20T12:36:39;145821.47;;;17.12;22.82
5877;BME280;2964;42.144;24.730;2023-02-20T12:39:17;145869.47;;;17.32;22.55
5877;BME280;2964;42.144;24.730;2023-02-20T12:41:56;145827.75;;;17.15;22.99
5877;BME280;2964;42.144;24.730;2023-02-20T12:44:53;145811.38;;;17.08;22.82
5877;BME280;2964;42.144;24.730;2023-02-20T12:47:29;145778.56;;;16.95;22.91
5877;BME280;2964;42.144;24.730;2023-02-20T12:50:16;145817.66;;;17.11;23.02
5877;BME280;2964;42.144;24.730;2023-02-20T12:52:57;145837.88;;;17.19;23.01
5877;BME280;2964;42.144;24.730;2023-02-20T12:55:33;145841.63;;;17.21;23.40
5877;BME280;2964;42.144;24.730;2023-02-20T12:58:15;145827.75;;;17.15;23.23
5877;BME280;2964;42.144;24.730;2023-02-20T13:00:47;145882.03;;;17.37;23.27
5877;BME280;2964;42.144;24.730;2023-02-20T13:03:19;145892.19;;;17.41;22.96
5877;BME280;2964;42.144;24.730;2023-02-20T13:05:49;145825.25;;;17.14;22.85
5877;BME280;2964;42.144;24.730;2023-02-20T13:08:20;145829.03;;;17.15;23.56
5877;BME280;2964;42.144;24.730;2023-02-20T13:10:54;145824.00;;;17.13;24.00
5877;BME280;2964;42.144;24.730;2023-02-20T13:13:22;145836.59;;;17.18;23.50
5877;BME280;2964;42.144;24.730;2023-02-20T13:15:53;145817.66;;;17.11;23.64
5877;BME280;2964;42.144;24.730;2023-02-20T13:18:33;145791.16;;;17.00;23.54
5877;BME280;2964;42.144;24.730;2023-02-20T13:21:05;145773.47;;;16.93;23.36
5877;BME280;2964;42.144;24.730;2023-02-20T13:23:36;145740.59;;;16.79;23.23
5877;BME280;2964;42.144;24.730;2023-02-20T13:29:19;145794.94;;;17.02;23.52
5877;BME280;2964;42.144;24.730;2023-02-20T13:31:53;145788.66;;;16.99;23.35